Current | Forecast
Updated: 7:30 AM JST on April 24, 2018
Observed at Chitose AB, Japan
Temperature 43°F
Humidity 93%
Dew Point 41°F
Wind SW at 2 mph
Pressure 30.15 in (Steady)
Conditions Light Rain Showers
Visibility 5.0 miles
UV 1 out of 16
Clouds (FEW) : 1000 ft
Scattered Clouds (SCT) : 1800 ft
Mostly Cloudy (BKN) : 2000 ft
Yesterday's Maximum 55°F
Yesterday's Minimum 36°F approx.
Yesterday's Heating Degree Days 20 approx.
Sunrise4:42 AM JST
Sunset6:28 PM JST
Moon Rise11:59 AM JST
Moon Set1:38 AM JST
Moon PhaseMoon Phase
Waxing Gibbous
Raw METARMETAR RJCC 232230Z 22002KT 8000 -SHRA BR FEW010 SCT018 BKN020 06/05 Q1021 RMK 1ST010 3ST018 7CU020 A3016 4000W


Monday
. High: 62° F.
Tuesday
. High: 57° F.
Wednesday
. High: 59° F.
Thursday
. High: 64° F.
Friday
. High: 60° F.
Saturday
. High: 55° F.
Sunday
. High: 60° F.
Monday
. High: 55° F.

Units: English | Metric

Find the Weather for any City, State or Zipcode, or Country:

U.S. State List | Severe Weather | Tropical Storms | Ski Conditions
United States | Canada | Central America | South America | Asia | Europe | Australia | Africa | Islands

Weather Underground

© Copyright 2018
The Weather Company, LLC